createdAt,value
2017-07-28T00:02:14.358Z,3.43
2017-07-28T00:04:42.174Z,2.17
2017-07-28T00:07:09.673Z,2.00
2017-07-28T00:09:37.243Z,2.40
2017-07-28T00:12:04.798Z,2.47
2017-07-28T00:14:32.325Z,2.07
2017-07-28T00:16:59.929Z,4.33
2017-07-28T00:19:27.520Z,1.80
2017-07-28T00:21:55.093Z,2.40
2017-07-28T00:24:22.731Z,2.30
2017-07-28T00:26:50.324Z,2.30
2017-07-28T00:29:17.865Z,2.60
2017-07-28T00:31:45.438Z,2.57
2017-07-28T00:34:13.201Z,2.30
2017-07-28T00:36:41.861Z,3.00
2017-07-28T00:39:09.430Z,3.10
2017-07-28T00:41:37.016Z,2.57
2017-07-28T00:44:04.651Z,3.90
2017-07-28T00:46:32.512Z,3.87
2017-07-28T00:49:00.088Z,3.40
2017-07-28T00:51:27.723Z,3.90
2017-07-28T00:53:55.307Z,4.40
2017-07-28T00:56:22.980Z,3.80
2017-07-28T00:58:50.754Z,4.50
2017-07-28T01:01:18.367Z,4.20
2017-07-28T01:03:46.602Z,5.53
2017-07-28T01:06:14.215Z,4.77
2017-07-28T01:08:41.799Z,4.50
2017-07-28T01:11:09.391Z,5.00
2017-07-28T01:13:36.994Z,5.93
2017-07-28T01:16:04.570Z,5.47
2017-07-28T01:18:32.098Z,5.37
2017-07-28T01:20:59.958Z,4.80
2017-07-28T01:23:27.504Z,4.97
2017-07-28T01:25:55.302Z,4.70
2017-07-28T01:28:22.865Z,5.13
2017-07-28T01:30:50.437Z,5.27
2017-07-28T01:33:18.006Z,5.43
2017-07-28T01:35:45.514Z,5.53
2017-07-28T01:38:13.138Z,4.60
2017-07-28T01:40:40.741Z,5.40
2017-07-28T01:43:08.313Z,5.60
2017-07-28T01:45:35.927Z,5.83
2017-07-28T01:48:03.462Z,5.60
2017-07-28T01:50:31.337Z,6.07
2017-07-28T01:52:58.987Z,6.50
2017-07-28T01:55:26.674Z,5.37
2017-07-28T01:57:54.472Z,6.17
2017-07-28T02:00:22.062Z,6.07
2017-07-28T02:02:49.688Z,5.23
2017-07-28T02:05:18.636Z,6.00
2017-07-28T02:07:46.240Z,5.03
2017-07-28T02:10:13.821Z,5.47
2017-07-28T02:12:41.353Z,5.10
2017-07-28T02:15:08.921Z,5.67
2017-07-28T02:17:36.449Z,5.70
2017-07-28T02:20:04.827Z,6.60
2017-07-28T02:22:32.476Z,5.50
2017-07-28T02:25:02.899Z,6.70
2017-07-28T02:27:30.463Z,6.80
2017-07-28T02:29:58.051Z,6.47
2017-07-28T02:32:25.608Z,6.40
2017-07-28T02:34:53.433Z,6.53
2017-07-28T02:37:20.951Z,6.60
2017-07-28T02:39:48.499Z,6.80
2017-07-28T02:42:16.069Z,9.07
2017-07-28T02:44:43.585Z,6.23
2017-07-28T02:47:11.130Z,5.43
2017-07-28T02:49:38.866Z,7.17
2017-07-28T02:52:06.649Z,6.43
2017-07-28T02:54:34.243Z,6.23
2017-07-28T02:57:01.794Z,5.97
2017-07-28T02:59:33.135Z,5.93
2017-07-28T03:04:40.122Z,6.00
2017-07-28T03:07:07.720Z,6.37
2017-07-28T03:09:35.249Z,6.60
2017-07-28T03:12:02.755Z,5.90
2017-07-28T03:14:30.325Z,5.30
2017-07-28T03:16:58.136Z,5.23
2017-07-28T03:19:25.690Z,5.00
2017-07-28T03:21:53.230Z,5.40
2017-07-28T03:24:20.857Z,5.97
2017-07-28T03:26:48.420Z,5.57
2017-07-28T03:29:16.291Z,5.60
2017-07-28T03:31:43.911Z,7.37
2017-07-28T03:34:11.459Z,5.83
2017-07-28T03:36:38.977Z,5.97
2017-07-28T03:39:06.517Z,5.63
2017-07-28T03:41:34.303Z,5.40
2017-07-28T03:44:01.917Z,5.87
2017-07-28T03:46:29.817Z,6.27
2017-07-28T03:48:57.317Z,6.63
2017-07-28T03:51:25.062Z,11.30
2017-07-28T03:53:52.658Z,5.90
2017-07-28T03:56:20.173Z,6.80
2017-07-28T03:58:47.700Z,6.50
2017-07-28T04:01:15.316Z,7.23
2017-07-28T04:03:42.817Z,6.80
2017-07-28T04:06:11.312Z,5.70
2017-07-28T04:08:38.851Z,7.57
2017-07-28T04:11:06.425Z,6.20
2017-07-28T04:13:33.968Z,6.73
2017-07-28T04:16:01.587Z,7.20
2017-07-28T04:18:29.170Z,9.53
2017-07-28T04:20:56.719Z,6.37
2017-07-28T04:23:24.290Z,6.63
2017-07-28T04:25:51.817Z,6.43
2017-07-28T04:28:19.365Z,6.00
2017-07-28T04:30:46.914Z,6.30
2017-07-28T04:33:14.453Z,6.63
2017-07-28T04:35:42.039Z,6.60
2017-07-28T04:38:09.630Z,6.17
2017-07-28T04:40:37.159Z,6.93
2017-07-28T04:43:04.722Z,7.50
2017-07-28T04:45:32.273Z,7.07
2017-07-28T04:47:59.789Z,7.20
2017-07-28T04:50:27.326Z,8.30
2017-07-28T04:52:54.907Z,6.60
2017-07-28T04:55:22.461Z,7.27
2017-07-28T04:57:50.040Z,6.73
2017-07-28T05:00:17.711Z,13.33
2017-07-28T05:02:45.254Z,11.27
2017-07-28T05:05:12.763Z,7.03
2017-07-28T05:07:40.306Z,6.77
2017-07-28T05:10:07.814Z,6.03
2017-07-28T05:12:35.321Z,8.10
2017-07-28T05:15:02.941Z,8.80
2017-07-28T05:17:30.448Z,6.40
2017-07-28T05:19:57.981Z,6.20
2017-07-28T05:22:25.543Z,5.67
2017-07-28T05:24:53.283Z,5.47
2017-07-28T05:27:20.786Z,5.13
2017-07-28T05:29:48.354Z,8.50
2017-07-28T05:32:15.893Z,5.23
2017-07-28T05:34:43.411Z,5.37
2017-07-28T05:37:10.941Z,5.10
2017-07-28T05:39:38.522Z,4.90
2017-07-28T05:42:06.046Z,5.20
2017-07-28T05:44:33.806Z,11.37
2017-07-28T05:47:01.681Z,5.70
2017-07-28T05:49:29.210Z,6.13
2017-07-28T05:51:56.715Z,5.63
2017-07-28T05:54:24.275Z,6.87
2017-07-28T05:56:51.794Z,5.20
2017-07-28T05:59:19.367Z,4.50
2017-07-28T06:01:46.915Z,5.27
2017-07-28T06:04:14.715Z,7.40
2017-07-28T06:06:42.233Z,5.30
2017-07-28T06:09:09.793Z,8.20
2017-07-28T06:11:37.292Z,5.00
2017-07-28T06:14:04.806Z,4.87
2017-07-28T06:16:32.362Z,5.07
2017-07-28T06:18:59.866Z,4.40
2017-07-28T06:21:27.391Z,4.60
2017-07-28T06:23:55.159Z,4.70
2017-07-28T06:26:22.897Z,4.60
2017-07-28T06:28:50.392Z,5.13
2017-07-28T06:31:17.959Z,4.80
2017-07-28T06:33:45.791Z,6.33
2017-07-28T06:36:13.318Z,13.80
2017-07-28T06:38:40.890Z,5.83
2017-07-28T06:41:08.421Z,4.80
2017-07-28T06:43:35.932Z,11.63
2017-07-28T06:46:03.517Z,8.83
2017-07-28T06:48:31.319Z,5.73
2017-07-28T06:50:58.839Z,6.17
2017-07-28T06:53:26.386Z,6.33
2017-07-28T06:55:53.935Z,5.93
2017-07-28T06:58:21.445Z,6.17
2017-07-28T07:00:48.988Z,8.30
2017-07-28T07:03:16.753Z,6.30
2017-07-28T07:05:44.295Z,6.70
2017-07-28T07:08:11.841Z,7.07
2017-07-28T07:10:39.385Z,6.53
2017-07-28T07:13:06.935Z,6.13
2017-07-28T07:15:34.518Z,6.23
2017-07-28T07:18:02.252Z,7.00
2017-07-28T07:20:29.794Z,6.40
2017-07-28T07:22:57.362Z,7.97
2017-07-28T07:25:24.912Z,7.07
2017-07-28T07:27:52.426Z,7.00
2017-07-28T07:30:20.001Z,7.17
2017-07-28T07:32:47.552Z,8.13
2017-07-28T07:35:15.172Z,7.73
2017-07-28T07:37:42.753Z,7.20
2017-07-28T07:40:10.519Z,6.70
2017-07-28T07:42:38.249Z,7.27
2017-07-28T07:45:05.830Z,7.07
2017-07-28T07:47:33.615Z,9.60
2017-07-28T07:50:01.118Z,9.93
2017-07-28T07:52:28.712Z,10.17
2017-07-28T07:54:56.228Z,7.07
2017-07-28T07:57:23.764Z,7.60
2017-07-28T07:59:51.334Z,6.97
2017-07-28T08:02:18.910Z,6.47
2017-07-28T08:04:46.470Z,6.83
2017-07-28T08:07:14.201Z,6.00
2017-07-28T08:09:41.765Z,6.40
2017-07-28T08:12:09.269Z,6.47
2017-07-28T08:14:37.224Z,6.30
2017-07-28T08:17:04.772Z,10.03
2017-07-28T08:19:32.294Z,10.07
2017-07-28T08:21:59.803Z,6.70
2017-07-28T08:24:27.585Z,5.33
2017-07-28T08:26:55.151Z,6.00
2017-07-28T08:29:22.733Z,7.20
2017-07-28T08:31:50.279Z,5.97
2017-07-28T08:34:18.068Z,6.40
2017-07-28T08:36:45.572Z,7.53
2017-07-28T08:39:13.173Z,7.17
2017-07-28T08:41:40.744Z,6.27
2017-07-28T08:44:08.522Z,8.70
2017-07-28T08:46:36.067Z,7.10
2017-07-28T08:49:03.593Z,7.13
2017-07-28T08:51:31.118Z,6.40
2017-07-28T08:53:58.684Z,7.10
2017-07-28T08:56:26.245Z,6.77
2017-07-28T08:58:53.801Z,7.33
2017-07-28T09:01:21.378Z,7.00
2017-07-28T09:03:48.987Z,7.87
2017-07-28T09:06:16.595Z,8.27
2017-07-28T09:08:44.191Z,7.13
2017-07-28T09:11:11.720Z,8.40
2017-07-28T09:13:39.301Z,7.40
2017-07-28T09:16:06.852Z,7.80
2017-07-28T09:18:34.437Z,6.87
2017-07-28T09:21:01.982Z,6.90
2017-07-28T09:23:29.581Z,6.80
2017-07-28T09:25:57.089Z,7.07
2017-07-28T09:28:24.650Z,7.17
2017-07-28T09:30:52.217Z,9.40
2017-07-28T09:33:19.969Z,7.03
2017-07-28T09:35:47.476Z,8.03
2017-07-28T09:38:15.066Z,6.67
2017-07-28T09:40:42.668Z,8.70
2017-07-28T09:43:10.268Z,7.50
2017-07-28T09:45:37.849Z,7.50
2017-07-28T09:48:05.361Z,7.20
2017-07-28T09:50:33.152Z,7.10
2017-07-28T09:53:00.726Z,7.00
2017-07-28T09:55:28.355Z,8.33
2017-07-28T09:57:55.912Z,9.33
2017-07-28T10:00:23.766Z,7.90
2017-07-28T10:02:51.270Z,8.17
2017-07-28T10:05:18.794Z,7.03
2017-07-28T10:07:46.439Z,8.13
2017-07-28T10:10:13.969Z,9.10
2017-07-28T10:12:41.489Z,10.50
2017-07-28T10:15:09.063Z,14.20
2017-07-28T10:17:36.631Z,8.67
2017-07-28T10:20:05.073Z,8.73
2017-07-28T10:22:32.614Z,9.00
2017-07-28T10:25:00.175Z,9.20
2017-07-28T10:27:27.772Z,10.20
2017-07-28T10:29:55.399Z,10.03
2017-07-28T10:32:22.950Z,9.80
2017-07-28T10:34:50.464Z,8.90
2017-07-28T10:37:18.009Z,11.20
2017-07-28T10:39:45.631Z,10.17
2017-07-28T10:42:13.158Z,10.30
2017-07-28T10:44:40.669Z,10.53
2017-07-28T10:47:08.242Z,10.47
2017-07-28T10:49:35.799Z,10.57
2017-07-28T10:52:03.353Z,9.57
2017-07-28T10:54:30.992Z,10.30
2017-07-28T10:56:58.528Z,11.17
2017-07-28T10:59:26.061Z,10.87
2017-07-28T11:01:53.837Z,11.20
2017-07-28T11:04:21.534Z,11.83
2017-07-28T11:06:49.045Z,11.50
2017-07-28T11:09:16.604Z,9.70
2017-07-28T11:11:44.142Z,10.80
2017-07-28T11:14:11.689Z,10.10
2017-07-28T11:16:39.559Z,11.13
2017-07-28T11:19:07.131Z,10.93
2017-07-28T11:21:34.734Z,11.67
2017-07-28T11:24:02.349Z,11.60
2017-07-28T11:26:29.893Z,13.00
2017-07-28T11:28:57.424Z,11.10
2017-07-28T11:31:24.961Z,9.90
2017-07-28T11:33:52.540Z,11.70
2017-07-28T11:36:20.343Z,11.80
2017-07-28T11:38:47.924Z,11.03
2017-07-28T11:41:15.477Z,10.23
2017-07-28T11:43:43.064Z,11.30
2017-07-28T11:46:10.635Z,9.43
2017-07-28T11:48:38.170Z,8.87
2017-07-28T11:51:05.709Z,8.60
2017-07-28T11:53:33.269Z,8.50
2017-07-28T11:56:00.839Z,9.23
2017-07-28T11:58:28.349Z,8.20
2017-07-28T12:00:55.956Z,10.13
2017-07-28T12:03:23.474Z,9.80
2017-07-28T12:05:50.985Z,13.00
2017-07-28T12:08:18.749Z,10.37
2017-07-28T12:10:46.547Z,8.90
2017-07-28T12:13:14.085Z,8.67
2017-07-28T12:15:41.667Z,9.30
2017-07-28T12:18:09.213Z,8.43
2017-07-28T12:20:36.803Z,8.40
2017-07-28T12:23:04.413Z,8.20
2017-07-28T12:25:32.213Z,8.00
2017-07-28T12:27:59.754Z,8.43
2017-07-28T12:30:27.410Z,8.07
2017-07-28T12:32:54.938Z,6.90
2017-07-28T12:35:22.531Z,6.57
2017-07-28T12:37:50.119Z,7.10
2017-07-28T12:40:17.707Z,7.20
2017-07-28T12:42:45.250Z,6.90
2017-07-28T12:45:13.766Z,6.80
2017-07-28T12:47:41.366Z,6.03
2017-07-28T12:50:09.893Z,6.10
2017-07-28T12:52:37.470Z,6.20
2017-07-28T12:55:05.007Z,5.93
2017-07-28T12:57:32.564Z,5.50
2017-07-28T13:00:00.146Z,6.20
2017-07-28T13:02:27.745Z,5.60
2017-07-28T13:04:55.302Z,5.70
2017-07-28T13:07:22.908Z,5.67
2017-07-28T13:09:50.497Z,5.50
2017-07-28T13:12:18.023Z,5.30
2017-07-28T13:14:45.564Z,6.87
2017-07-28T13:17:13.112Z,4.93
2017-07-28T13:19:40.678Z,5.27
2017-07-28T13:22:08.194Z,5.63
2017-07-28T13:24:35.953Z,5.13
2017-07-28T13:27:03.595Z,5.10
2017-07-28T13:29:31.109Z,5.17
2017-07-28T13:31:58.694Z,5.03
2017-07-28T13:34:26.204Z,9.93
2017-07-28T13:36:53.725Z,5.87
2017-07-28T13:39:21.486Z,7.20
2017-07-28T13:41:49.046Z,5.90
2017-07-28T13:44:16.833Z,5.33
2017-07-28T13:46:49.934Z,4.47
2017-07-28T13:49:17.514Z,5.13
2017-07-28T13:51:45.034Z,4.07
2017-07-28T13:54:12.602Z,4.80
2017-07-28T13:56:40.155Z,4.43
2017-07-28T13:59:07.657Z,5.57
2017-07-28T14:01:35.255Z,4.23
2017-07-28T14:04:02.833Z,4.83
2017-07-28T14:06:30.649Z,7.37
2017-07-28T14:08:58.243Z,4.80
2017-07-28T14:11:26.007Z,8.00
2017-07-28T14:13:53.574Z,4.67
2017-07-28T14:16:21.147Z,4.23
2017-07-28T14:18:48.666Z,5.43
2017-07-28T14:21:16.169Z,4.60
2017-07-28T14:23:43.721Z,4.20
2017-07-28T14:26:11.290Z,4.70
2017-07-28T14:28:39.177Z,4.67
2017-07-28T14:31:07.230Z,4.00
2017-07-28T14:33:34.974Z,5.00
2017-07-28T14:36:02.539Z,8.23
2017-07-28T14:38:30.089Z,6.93
2017-07-28T14:40:57.840Z,4.80
2017-07-28T14:43:25.455Z,4.67
2017-07-28T14:45:53.021Z,4.23
2017-07-28T14:48:20.654Z,6.07
2017-07-28T14:50:48.194Z,5.53
2017-07-28T14:53:15.768Z,4.43
2017-07-28T14:55:43.407Z,4.13
2017-07-28T14:58:10.977Z,4.10
2017-07-28T15:00:38.620Z,4.00
2017-07-28T15:03:06.391Z,6.07
2017-07-28T15:05:34.028Z,3.70
2017-07-28T15:08:01.623Z,4.10
2017-07-28T15:10:29.221Z,3.80
2017-07-28T15:12:56.767Z,4.30
2017-07-28T15:15:25.055Z,3.87
2017-07-28T15:17:52.682Z,4.13
2017-07-28T15:20:20.252Z,4.00
2017-07-28T15:22:47.843Z,3.67
2017-07-28T15:25:15.445Z,4.50
2017-07-28T15:27:43.208Z,7.83
2017-07-28T15:30:10.869Z,4.57
2017-07-28T15:32:38.474Z,4.00
2017-07-28T15:35:06.249Z,5.50
2017-07-28T15:37:33.839Z,4.30
2017-07-28T15:40:01.415Z,3.90
2017-07-28T15:42:29.179Z,5.50
2017-07-28T15:44:56.756Z,4.50
2017-07-28T15:47:24.340Z,5.53
2017-07-28T15:49:51.888Z,3.60
2017-07-28T15:52:19.520Z,3.83
2017-07-28T15:54:47.279Z,5.27
2017-07-28T15:57:14.884Z,3.70
2017-07-28T15:59:42.529Z,4.83
2017-07-28T16:02:10.273Z,3.60
2017-07-28T16:04:37.892Z,4.10
2017-07-28T16:07:05.440Z,3.90
2017-07-28T16:09:33.028Z,3.93
2017-07-28T16:12:01.396Z,4.43
2017-07-28T16:14:28.924Z,4.20
2017-07-28T16:16:56.537Z,4.73
2017-07-28T16:19:24.164Z,4.70
2017-07-28T16:21:51.709Z,6.47
2017-07-28T16:24:20.787Z,6.20
2017-07-28T16:26:48.540Z,5.43
2017-07-28T16:29:16.251Z,4.70
2017-07-28T16:31:44.021Z,8.53
2017-07-28T16:34:11.611Z,4.90
2017-07-28T16:36:39.318Z,5.07
2017-07-28T16:39:07.827Z,4.40
2017-07-28T16:41:35.373Z,9.50
2017-07-28T16:44:03.020Z,4.83
2017-07-28T16:46:31.519Z,5.30
2017-07-28T16:48:59.138Z,5.20
2017-07-28T16:51:26.718Z,6.10
2017-07-28T16:53:54.315Z,7.57
2017-07-28T16:56:21.877Z,6.27
2017-07-28T16:58:49.632Z,6.20
2017-07-28T17:01:17.189Z,6.10
2017-07-28T17:03:44.699Z,6.53
2017-07-28T17:06:12.206Z,6.10
2017-07-28T17:08:39.816Z,11.27
2017-07-28T17:11:07.323Z,6.37
2017-07-28T17:13:34.827Z,6.23
2017-07-28T17:16:03.021Z,6.17
2017-07-28T17:18:30.570Z,7.17
2017-07-28T17:20:59.748Z,7.17
2017-07-28T17:23:27.610Z,7.73
2017-07-28T17:25:55.163Z,8.77
2017-07-28T17:28:22.754Z,6.13
2017-07-28T17:30:50.306Z,6.17
2017-07-28T17:33:17.827Z,5.97
2017-07-28T17:35:45.685Z,6.10
2017-07-28T17:38:13.280Z,7.10
2017-07-28T17:40:41.441Z,8.27
2017-07-28T17:43:08.947Z,5.73
2017-07-28T17:45:36.506Z,5.87
2017-07-28T17:48:04.019Z,5.77
2017-07-28T17:50:31.523Z,5.57
2017-07-28T17:52:59.075Z,6.00
2017-07-28T17:55:26.850Z,5.60
2017-07-28T17:57:54.365Z,5.60
2017-07-28T18:00:22.117Z,6.80
2017-07-28T18:02:49.684Z,6.03
2017-07-28T18:05:17.243Z,6.53
2017-07-28T18:07:44.800Z,5.50
2017-07-28T18:10:12.663Z,6.23
2017-07-28T18:12:40.455Z,6.20
2017-07-28T18:15:08.098Z,6.33
2017-07-28T18:17:35.602Z,8.97
2017-07-28T18:20:03.177Z,8.00
2017-07-28T18:22:30.712Z,11.60
2017-07-28T18:24:58.262Z,8.63
2017-07-28T18:27:26.027Z,8.37
2017-07-28T18:29:53.603Z,7.40
2017-07-28T18:32:21.236Z,7.80
2017-07-28T18:34:48.777Z,8.23
2017-07-28T18:37:16.336Z,7.70
2017-07-28T18:39:44.116Z,6.70
2017-07-28T18:42:11.953Z,7.50
2017-07-28T18:44:39.474Z,7.43
2017-07-28T18:47:07.239Z,8.30
2017-07-28T18:49:35.866Z,8.30
2017-07-28T18:52:03.598Z,7.63
2017-07-28T18:54:31.158Z,8.03
2017-07-28T18:56:58.739Z,8.20
2017-07-28T18:59:26.628Z,8.60
2017-07-28T19:01:54.197Z,6.97
2017-07-28T19:04:21.734Z,7.20
2017-07-28T19:06:49.271Z,7.23
2017-07-28T19:09:16.819Z,6.80
2017-07-28T19:11:44.402Z,7.00
2017-07-28T19:14:12.011Z,6.80
2017-07-28T19:16:39.594Z,7.00
2017-07-28T19:19:07.160Z,7.80
2017-07-28T19:21:34.738Z,6.90
2017-07-28T19:24:02.373Z,6.57
2017-07-28T19:26:29.942Z,7.43
2017-07-28T19:28:58.284Z,8.43
2017-07-28T19:31:25.840Z,7.63
2017-07-28T19:33:53.684Z,8.20
2017-07-28T19:36:21.545Z,8.00
2017-07-28T19:38:49.113Z,7.60
2017-07-28T19:41:16.636Z,7.77
2017-07-28T19:43:44.212Z,8.10
2017-07-28T19:46:11.763Z,7.00
2017-07-28T19:48:39.542Z,7.23
2017-07-28T19:51:07.070Z,9.50
2017-07-28T19:53:34.672Z,6.80
2017-07-28T19:56:02.277Z,8.83
2017-07-28T19:58:29.807Z,7.70
2017-07-28T20:00:57.416Z,7.50
2017-07-28T20:03:24.978Z,6.57
2017-07-28T20:05:52.535Z,6.20
2017-07-28T20:08:20.161Z,6.20
2017-07-28T20:10:47.931Z,7.73
2017-07-28T20:13:15.682Z,6.97
2017-07-28T20:15:43.399Z,7.43
2017-07-28T20:18:10.971Z,7.03
2017-07-28T20:20:38.495Z,7.33
2017-07-28T20:23:06.978Z,6.50
2017-07-28T20:25:34.773Z,8.30
2017-07-28T20:28:02.392Z,6.83
2017-07-28T20:30:29.937Z,6.47
2017-07-28T20:32:57.514Z,6.67
2017-07-28T20:35:25.055Z,7.10
2017-07-28T20:37:52.647Z,9.10
2017-07-28T20:40:20.169Z,9.70
2017-07-28T20:42:47.728Z,9.13
2017-07-28T20:45:15.271Z,10.63
2017-07-28T20:47:42.843Z,7.53
2017-07-28T20:50:10.394Z,12.87
2017-07-28T20:52:38.009Z,10.87
2017-07-28T20:55:05.630Z,13.37
2017-07-28T20:57:33.231Z,12.80
2017-07-28T21:00:00.828Z,11.57
2017-07-28T21:02:28.667Z,13.27
2017-07-28T21:04:56.243Z,13.37
2017-07-28T21:07:23.794Z,14.07
2017-07-28T21:09:51.434Z,12.93
2017-07-28T21:12:19.024Z,11.67
2017-07-28T21:14:46.857Z,12.53
2017-07-28T21:17:14.486Z,11.70
2017-07-28T21:19:42.057Z,10.37
2017-07-28T21:22:09.565Z,9.70
2017-07-28T21:24:37.117Z,9.60
2017-07-28T21:27:04.702Z,10.27
2017-07-28T21:29:32.309Z,9.47
2017-07-28T21:31:59.935Z,10.53
2017-07-28T21:34:27.511Z,9.13
2017-07-28T21:36:55.082Z,9.60
2017-07-28T21:39:22.675Z,10.17
2017-07-28T21:41:50.413Z,8.70
2017-07-28T21:44:17.985Z,9.10
2017-07-28T21:46:46.079Z,11.53
2017-07-28T21:49:22.191Z,8.60
2017-07-28T21:51:49.771Z,9.67
2017-07-28T21:54:19.857Z,8.60
2017-07-28T21:56:49.451Z,7.77
2017-07-28T21:59:22.373Z,8.90
2017-07-28T22:01:51.459Z,9.57
2017-07-28T22:04:22.341Z,8.73
2017-07-28T22:06:49.907Z,7.97
2017-07-28T22:09:17.528Z,9.37
2017-07-28T22:11:45.049Z,8.00
2017-07-28T22:14:12.862Z,8.13
2017-07-28T22:16:40.407Z,8.00
2017-07-28T22:19:07.953Z,7.97
2017-07-28T22:21:35.482Z,8.50
2017-07-28T22:24:03.049Z,8.47
2017-07-28T22:26:30.616Z,8.27
2017-07-28T22:28:58.144Z,8.20
2017-07-28T22:31:25.695Z,13.50
2017-07-28T22:33:53.217Z,9.10
2017-07-28T22:36:20.729Z,10.03
2017-07-28T22:38:48.610Z,8.50
2017-07-28T22:41:16.552Z,10.10
2017-07-28T22:43:44.060Z,9.23
2017-07-28T22:46:11.637Z,12.67
2017-07-28T22:48:39.451Z,11.83
2017-07-28T22:51:07.057Z,13.13
2017-07-28T22:53:34.633Z,10.10
2017-07-28T22:56:02.227Z,9.43
2017-07-28T22:58:29.794Z,10.30
2017-07-28T23:00:57.438Z,8.83
2017-07-28T23:03:25.029Z,10.27
2017-07-28T23:05:52.587Z,8.40
2017-07-28T23:08:20.195Z,8.43
2017-07-28T23:10:47.999Z,9.47
2017-07-28T23:13:16.799Z,9.07
2017-07-28T23:15:44.372Z,10.83
2017-07-28T23:18:11.908Z,9.30
2017-07-28T23:20:39.658Z,10.83
2017-07-28T23:23:07.244Z,10.80
2017-07-28T23:25:34.815Z,9.33
2017-07-28T23:28:02.392Z,9.13
2017-07-28T23:30:29.976Z,9.40
2017-07-28T23:32:57.567Z,14.50
2017-07-28T23:35:25.086Z,9.23
2017-07-28T23:37:52.695Z,9.53
2017-07-28T23:40:20.243Z,8.43
2017-07-28T23:42:47.798Z,8.80
2017-07-28T23:45:15.367Z,8.87
2017-07-28T23:47:42.892Z,9.23
2017-07-28T23:50:10.447Z,7.73
2017-07-28T23:52:39.068Z,7.63
2017-07-28T23:55:06.668Z,8.53
2017-07-28T23:57:34.196Z,9.33
